Nearby METAR Reports

 

KCPC - Whiteville, North Carolina, USA
Distance from station: NNE 17mi, 28km
Updated: 06/25/2021 9:35am
Mostly cloudy
Mostly cloudy
 Wind from NNE
Wind: NNE 6 mph , 9 km/h
Temperature: 75°F , 24°C
Dew Point: 68°F , 20°C
Humidity: 78%
Barometer: 30.25 inHg , 1024.4 hPa
Clouds: Mostly cloudy
Visibility: 10 miles , 16 km
Cloud details: Partly cloudy 1100 ft
Partly cloudy 3400 ft
Mostly cloudy 6000 ft
2021/06/25 13:35 KCPC 251335Z AUTO 02005KT 10SM SCT011 SCT034 BKN060 24/20 A3025 RMK AO2 T02350201
KCRE - North Myrtle Bea, South Carolina, USA
Distance from station: SSE 19mi, 31km
Updated: 06/25/2021 9:53am
Mostly cloudy
Mostly cloudy
 Wind from varies
Wind: varies 6 mph , 9 km/h
Temperature: 79°F , 26°C
Dew Point: 72°F , 22°C
Humidity: 79%
Barometer: 30.22 inHg , 1023.4 hPa
Clouds: Mostly cloudy
Visibility: 10 miles , 16 km
Cloud details: Mostly cloudy 1100 ft
Mostly cloudy 5000 ft
2021/06/25 13:53 KCRE 251353Z VRB05KT 10SM BKN011 BKN050 26/22 A3022 RMK AO1 SLP233 T02560222
 
KHYW - Conway-Horry Cty, South Carolina, USA
Distance from station: SW 22mi, 35km
Updated: 06/25/2021 9:35am
Overcast
Overcast
 Wind from NNE
Wind: NNE 7 mph , 11 km/h
Temperature: 73°F , 23°C
Dew Point: 68°F , 20°C
Humidity: 83%
Barometer: 30.23 inHg , 1023.7 hPa
Clouds: Overcast
Visibility: 10 miles , 16 km
Cloud details: Overcast 1200 ft
2021/06/25 13:35 KHYW 251335Z AUTO 03006KT 10SM OVC012 23/20 A3023 RMK AO2 LTG DSNT S
KMAO - Marion, South Carolina, USA
Distance from station: WNW 28mi, 45km
Updated: 06/25/2021 9:55am
Overcast
Overcast
 Wind from ENE
Wind: ENE 7 mph , 11 km/h
Temperature: 70°F , 21°C
Dew Point: 66°F , 19°C
Humidity: 88%
Barometer: 30.24 inHg , 1024 hPa
Clouds: Overcast
Visibility: 10 miles , 16 km
Cloud details: Overcast 1100 ft
2021/06/25 13:55 KMAO 251355Z AUTO 06006KT 10SM OVC011 21/19 A3024 RMK AO2
 
KMYR - Myrtle Beach, South Carolina, USA
Distance from station: S 28mi, 45km
Updated: 06/25/2021 9:39am
Overcast
Overcast
 Wind from NNE
Wind: NNE 8 mph , 13 km/h
Temperature: 75°F , 24°C
Dew Point: 72°F , 22°C
Humidity: 89%
Barometer: 30.22 inHg , 1023.4 hPa
Clouds: Overcast
Visibility: 10 miles , 16 km
Cloud details: Mostly cloudy 1000 ft
Mostly cloudy 1600 ft
Overcast 4500 ft
2021/06/25 13:39 KMYR 251339Z 02007KT 10SM BKN010 BKN016 OVC045 24/22 A3022 RMK AO2 CIG 009V013
KLBT - Lumberton, North Carolina, USA
Distance from station: NNW 39mi, 62km
Updated: 03/28/2019 9:55am
NOT Current

 
2019/03/28 13:55 KLBT 281355Z MKT MSM M M M M A0000 M M RMK TEST
 
KSUT - Southport, North Carolina, USA
Distance from station: E 46mi, 74km
Updated: 06/25/2021 9:35am
Partly cloudy
Partly cloudy
 Wind from SSE
Wind: SSE 3 mph , 6 km/h
Temperature: 79°F , 26°C
Dew Point: 70°F , 21°C
Humidity: 74%
Barometer: 30.23 inHg , 1023.7 hPa
Clouds: Partly cloudy
Visibility: 10 miles , 16 km
Cloud details: Partly cloudy 2900 ft
Partly cloudy 3900 ft
2021/06/25 13:35 KSUT 251335Z AUTO 15003KT 10SM SCT029 SCT039 26/21 A3023 RMK AO2 T02570210
KFLO - Florence, South Carolina, USA
Distance from station: W 50mi, 81km
Updated: 06/25/2021 9:53am
Overcast
Overcast
 Wind from ENE
Wind: ENE 9 mph , 15 km/h
Temperature: 73°F , 23°C
Dew Point: 63°F , 17°C
Humidity: 69%
Barometer: 30.23 inHg , 1023.7 hPa
Clouds: Overcast
Visibility: 10 miles , 16 km
Cloud details: Overcast 1400 ft
2021/06/25 13:53 KFLO 251353Z 07008KT 10SM OVC014 23/17 A3023 RMK AO2 SLP235 T02280172